ADDS TAF Board (Experimental) INFO Settings
IDs: Format: Expanded Condensed

KORD - Chicago/O'Hare Intl, IL, US

Issued at 2334 UTC 27 May 2015
Updated at: 2353 UTC 27 May 2015
Time2251Z 28/00Z 28/01Z 28/02Z 28/03Z 28/04Z 28/05Z 28/06Z 28/07Z 28/08Z 28/09Z 28/10Z 28/11Z 28/12Z
Type OBS PRVL PRVL PRVL PRVL PRVL PRVL PRVL PRVL PRVL PRVL PRVL PRVL PRVL
VIS 10 >6 >6 >6 >6 >6 >6 >6 >6 >6 >6 >6 >6 >6
CIG -- -- -- -- -- -- -- -- -- -- -- -- -- --
Cover FEW FEW FEW SKC SKC SKC SKC SKC SKC SKC SKC SKC SKC SKC
FltCat VFR VFR VFR VFR VFR VFR VFR VFR VFR VFR VFR VFR VFR VFR
WX -- -- -- -- -- -- -- -- -- -- -- -- -- --
WDir 350 20 20 VRB VRB VRB VRB VRB VRB VRB VRB VRB VRB VRB
WSpd 7 5 5 3 3 3 3 3 3 3 3 3 3 3
WGst -- -- -- -- -- -- -- -- -- -- -- -- -- --
R04/22
XWnd 5 2 2 VRB VRB VRB VRB VRB VRB VRB VRB VRB VRB VRB
HWnd 5 5 5 VRB VRB VRB VRB VRB VRB VRB VRB VRB VRB VRB
R09/27
XWnd 7 5 5 VRB VRB VRB VRB VRB VRB VRB VRB VRB VRB VRB
HWnd -1 2 2 VRB VRB VRB VRB VRB VRB VRB VRB VRB VRB VRB
R10/28
XWnd 7 5 5 VRB VRB VRB VRB VRB VRB VRB VRB VRB VRB VRB
HWnd -1 2 2 VRB VRB VRB VRB VRB VRB VRB VRB VRB VRB VRB
R14/32
XWnd 4 4 4 VRB VRB VRB VRB VRB VRB VRB VRB VRB VRB VRB
HWnd -6 -2 -2 VRB VRB VRB VRB VRB VRB VRB VRB VRB VRB VRB

NOTE: TEMPO conditions in [brackets]. Keep in mind TEMPO conditions might be better (lower impact) than prevailing conditions.

Raw TAF
KORD 272334Z 2800/2906 02005KT P6SM FEW040
  FM280200 VRB03KT P6SM SKC
  FM281500 15008KT P6SM FEW050
  FM282000 09010KT P6SM SKC
  FM290300 13007KT P6SM SCT200


Raw METAR
KORD 272251Z 35007KT 10SM FEW075 23/12 A3003 RMK AO2 SLP166 T02330117
KORD 272151Z 30010KT 10SM SCT040 BKN075 23/13 A3002 RMK AO2 SLP164 T02280128
KORD 272051Z 30010KT 10SM SCT060 SCT075 BKN090 22/14 A3002 RMK AO2 RAB07E18 SLP162 P0000 60000 T02170139 53014

METAR Board
Radar Display
Forecast Discussion

TAF Board Legend

Potential Impact
Threat None Slight Moderate High
Visibility (sm) ≥5.1 5.1>X≥3 3>X≥1 <1
Ceiling (100 ft) ≥30.1 30.1>X≥10 10>X≥5 <5
Wind Speed (kt) <10 10≤X<20 20≤X<30 ≥30
Wind Gust (kt) <15 15≤X<25 25≤X<35 ≥35
Weather No Wx Reported VCTS,-TS,-FZRA,SN TS,FZRA +TS,+FZRA,+SN